sensor_id;sensor_type;location;lat;lon;timestamp;P1;durP1;ratioP1;P2;durP2;ratioP2
10617;SDS011;5356;43.526;26.534;2022-11-20T00:00:24;10.07;;;4.10;;
10617;SDS011;5356;43.526;26.534;2022-11-20T00:02:49;7.55;;;4.05;;
10617;SDS011;5356;43.526;26.534;2022-11-20T00:05:14;8.95;;;4.43;;
10617;SDS011;5356;43.526;26.534;2022-11-20T00:07:40;8.23;;;4.75;;
10617;SDS011;5356;43.526;26.534;2022-11-20T00:10:06;7.78;;;4.50;;
10617;SDS011;5356;43.526;26.534;2022-11-20T00:12:32;10.10;;;5.43;;
10617;SDS011;5356;43.526;26.534;2022-11-20T00:14:57;8.70;;;4.20;;
10617;SDS011;5356;43.526;26.534;2022-11-20T00:17:23;8.45;;;4.30;;
10617;SDS011;5356;43.526;26.534;2022-11-20T00:19:48;9.18;;;4.72;;
10617;SDS011;5356;43.526;26.534;2022-11-20T00:22:14;7.65;;;4.82;;
10617;SDS011;5356;43.526;26.534;2022-11-20T00:24:39;10.65;;;4.85;;
10617;SDS011;5356;43.526;26.534;2022-11-20T00:27:04;6.65;;;4.18;;
10617;SDS011;5356;43.526;26.534;2022-11-20T00:29:30;8.10;;;4.88;;
10617;SDS011;5356;43.526;26.534;2022-11-20T00:31:55;6.50;;;4.50;;
10617;SDS011;5356;43.526;26.534;2022-11-20T00:34:21;6.22;;;4.30;;
10617;SDS011;5356;43.526;26.534;2022-11-20T00:36:46;7.53;;;4.45;;
10617;SDS011;5356;43.526;26.534;2022-11-20T00:39:11;5.93;;;4.57;;
10617;SDS011;5356;43.526;26.534;2022-11-20T00:41:37;9.65;;;5.50;;
10617;SDS011;5356;43.526;26.534;2022-11-20T00:44:02;6.72;;;4.65;;
10617;SDS011;5356;43.526;26.534;2022-11-20T00:46:28;7.35;;;4.70;;
10617;SDS011;5356;43.526;26.534;2022-11-20T00:48:54;10.02;;;5.80;;
10617;SDS011;5356;43.526;26.534;2022-11-20T00:51:21;10.07;;;4.32;;
10617;SDS011;5356;43.526;26.534;2022-11-20T00:53:48;7.68;;;4.30;;
10617;SDS011;5356;43.526;26.534;2022-11-20T00:56:15;7.82;;;4.40;;
10617;SDS011;5356;43.526;26.534;2022-11-20T00:58:43;6.30;;;4.18;;
10617;SDS011;5356;43.526;26.534;2022-11-20T01:01:11;7.95;;;4.80;;
10617;SDS011;5356;43.526;26.534;2022-11-20T01:03:37;7.18;;;3.92;;
10617;SDS011;5356;43.526;26.534;2022-11-20T01:06:09;4.95;;;3.63;;
10617;SDS011;5356;43.526;26.534;2022-11-20T01:08:38;6.57;;;4.00;;
10617;SDS011;5356;43.526;26.534;2022-11-20T01:11:06;8.85;;;4.47;;
10617;SDS011;5356;43.526;26.534;2022-11-20T01:13:34;6.75;;;4.40;;
10617;SDS011;5356;43.526;26.534;2022-11-20T01:16:10;7.00;;;4.00;;
10617;SDS011;5356;43.526;26.534;2022-11-20T01:18:41;4.72;;;3.92;;
10617;SDS011;5356;43.526;26.534;2022-11-20T01:21:10;7.35;;;4.28;;
10617;SDS011;5356;43.526;26.534;2022-11-20T01:23:38;4.35;;;3.83;;
10617;SDS011;5356;43.526;26.534;2022-11-20T01:26:06;8.30;;;3.78;;
10617;SDS011;5356;43.526;26.534;2022-11-20T01:28:34;6.00;;;3.97;;
10617;SDS011;5356;43.526;26.534;2022-11-20T01:31:01;6.93;;;3.47;;
10617;SDS011;5356;43.526;26.534;2022-11-20T01:33:27;7.53;;;3.80;;
10617;SDS011;5356;43.526;26.534;2022-11-20T01:35:53;6.55;;;3.88;;
10617;SDS011;5356;43.526;26.534;2022-11-20T01:38:27;6.80;;;3.90;;
10617;SDS011;5356;43.526;26.534;2022-11-20T01:40:55;5.68;;;3.55;;
10617;SDS011;5356;43.526;26.534;2022-11-20T01:43:21;6.63;;;2.90;;
10617;SDS011;5356;43.526;26.534;2022-11-20T01:48:42;7.18;;;3.25;;
10617;SDS011;5356;43.526;26.534;2022-11-20T01:51:21;4.80;;;3.10;;
10617;SDS011;5356;43.526;26.534;2022-11-20T01:53:50;7.43;;;3.10;;
10617;SDS011;5356;43.526;26.534;2022-11-20T01:56:19;3.88;;;3.08;;
10617;SDS011;5356;43.526;26.534;2022-11-20T01:58:47;6.55;;;2.85;;
10617;SDS011;5356;43.526;26.534;2022-11-20T02:01:17;5.50;;;3.08;;
10617;SDS011;5356;43.526;26.534;2022-11-20T02:03:43;7.10;;;3.53;;
10617;SDS011;5356;43.526;26.534;2022-11-20T02:06:14;5.43;;;3.13;;
10617;SDS011;5356;43.526;26.534;2022-11-20T02:08:47;3.58;;;2.72;;
10617;SDS011;5356;43.526;26.534;2022-11-20T02:11:13;6.45;;;2.85;;
10617;SDS011;5356;43.526;26.534;2022-11-20T02:13:38;3.83;;;2.97;;
10617;SDS011;5356;43.526;26.534;2022-11-20T02:16:12;4.70;;;2.95;;
10617;SDS011;5356;43.526;26.534;2022-11-20T02:18:44;3.45;;;2.70;;
10617;SDS011;5356;43.526;26.534;2022-11-20T02:26:28;5.47;;;2.75;;
10617;SDS011;5356;43.526;26.534;2022-11-20T02:28:56;5.75;;;2.75;;
10617;SDS011;5356;43.526;26.534;2022-11-20T02:31:23;4.32;;;2.55;;
10617;SDS011;5356;43.526;26.534;2022-11-20T02:33:53;3.83;;;2.67;;
10617;SDS011;5356;43.526;26.534;2022-11-20T02:36:23;5.38;;;2.92;;
10617;SDS011;5356;43.526;26.534;2022-11-20T02:38:51;5.03;;;2.80;;
10617;SDS011;5356;43.526;26.534;2022-11-20T02:41:16;6.55;;;2.95;;
10617;SDS011;5356;43.526;26.534;2022-11-20T02:43:42;5.68;;;3.00;;
10617;SDS011;5356;43.526;26.534;2022-11-20T02:46:07;5.45;;;3.03;;
10617;SDS011;5356;43.526;26.534;2022-11-20T02:48:33;6.65;;;3.17;;
10617;SDS011;5356;43.526;26.534;2022-11-20T02:50:58;3.80;;;2.75;;
10617;SDS011;5356;43.526;26.534;2022-11-20T02:53:24;4.78;;;2.97;;
10617;SDS011;5356;43.526;26.534;2022-11-20T02:55:50;5.47;;;2.80;;
10617;SDS011;5356;43.526;26.534;2022-11-20T02:58:15;5.07;;;2.80;;
10617;SDS011;5356;43.526;26.534;2022-11-20T03:00:41;4.70;;;2.63;;
10617;SDS011;5356;43.526;26.534;2022-11-20T03:03:06;4.65;;;3.30;;
10617;SDS011;5356;43.526;26.534;2022-11-20T03:05:31;2.97;;;2.58;;
10617;SDS011;5356;43.526;26.534;2022-11-20T03:07:57;6.45;;;2.85;;
10617;SDS011;5356;43.526;26.534;2022-11-20T03:10:22;3.50;;;2.88;;
10617;SDS011;5356;43.526;26.534;2022-11-20T03:12:52;4.68;;;2.35;;
10617;SDS011;5356;43.526;26.534;2022-11-20T03:15:18;4.40;;;2.35;;
10617;SDS011;5356;43.526;26.534;2022-11-20T03:17:43;5.55;;;3.17;;
10617;SDS011;5356;43.526;26.534;2022-11-20T03:20:09;4.20;;;2.80;;
10617;SDS011;5356;43.526;26.534;2022-11-20T03:22:35;4.75;;;2.60;;
10617;SDS011;5356;43.526;26.534;2022-11-20T03:25:00;6.50;;;2.58;;
10617;SDS011;5356;43.526;26.534;2022-11-20T03:27:25;6.82;;;2.85;;
10617;SDS011;5356;43.526;26.534;2022-11-20T03:29:51;3.65;;;2.70;;
10617;SDS011;5356;43.526;26.534;2022-11-20T03:32:16;5.15;;;2.88;;
10617;SDS011;5356;43.526;26.534;2022-11-20T03:34:42;3.88;;;2.85;;
10617;SDS011;5356;43.526;26.534;2022-11-20T03:37:07;6.43;;;2.97;;
10617;SDS011;5356;43.526;26.534;2022-11-20T03:39:33;7.63;;;2.85;;
10617;SDS011;5356;43.526;26.534;2022-11-20T03:41:58;5.82;;;3.03;;
10617;SDS011;5356;43.526;26.534;2022-11-20T03:44:23;3.53;;;3.10;;
10617;SDS011;5356;43.526;26.534;2022-11-20T03:46:49;6.82;;;2.70;;
10617;SDS011;5356;43.526;26.534;2022-11-20T03:49:14;5.07;;;3.10;;
10617;SDS011;5356;43.526;26.534;2022-11-20T03:51:40;4.40;;;2.83;;
10617;SDS011;5356;43.526;26.534;2022-11-20T03:54:06;4.10;;;2.47;;
10617;SDS011;5356;43.526;26.534;2022-11-20T03:56:34;3.97;;;2.65;;
10617;SDS011;5356;43.526;26.534;2022-11-20T03:59:01;5.13;;;3.28;;
10617;SDS011;5356;43.526;26.534;2022-11-20T04:01:29;7.65;;;3.05;;
10617;SDS011;5356;43.526;26.534;2022-11-20T04:03:57;6.45;;;2.97;;
10617;SDS011;5356;43.526;26.534;2022-11-20T04:06:27;4.43;;;2.97;;
10617;SDS011;5356;43.526;26.534;2022-11-20T04:08:55;4.00;;;2.67;;
10617;SDS011;5356;43.526;26.534;2022-11-20T04:11:22;4.28;;;2.47;;
10617;SDS011;5356;43.526;26.534;2022-11-20T04:13:50;5.97;;;3.28;;
10617;SDS011;5356;43.526;26.534;2022-11-20T04:16:18;3.65;;;3.13;;
10617;SDS011;5356;43.526;26.534;2022-11-20T04:18:44;8.75;;;2.85;;
10617;SDS011;5356;43.526;26.534;2022-11-20T04:21:10;6.07;;;2.70;;
10617;SDS011;5356;43.526;26.534;2022-11-20T04:23:36;6.55;;;3.10;;
10617;SDS011;5356;43.526;26.534;2022-11-20T04:26:06;5.85;;;2.83;;
10617;SDS011;5356;43.526;26.534;2022-11-20T04:28:33;4.70;;;2.92;;
10617;SDS011;5356;43.526;26.534;2022-11-20T04:31:08;5.43;;;3.13;;
10617;SDS011;5356;43.526;26.534;2022-11-20T04:33:36;4.97;;;3.40;;
10617;SDS011;5356;43.526;26.534;2022-11-20T04:36:06;5.93;;;3.42;;
10617;SDS011;5356;43.526;26.534;2022-11-20T04:38:39;4.88;;;3.22;;
10617;SDS011;5356;43.526;26.534;2022-11-20T04:41:07;3.00;;;2.70;;
10617;SDS011;5356;43.526;26.534;2022-11-20T04:43:36;3.70;;;2.80;;
10617;SDS011;5356;43.526;26.534;2022-11-20T04:46:01;6.82;;;4.28;;
10617;SDS011;5356;43.526;26.534;2022-11-20T04:48:27;7.82;;;3.53;;
10617;SDS011;5356;43.526;26.534;2022-11-20T04:50:54;6.35;;;3.22;;
10617;SDS011;5356;43.526;26.534;2022-11-20T04:53:20;5.43;;;3.10;;
10617;SDS011;5356;43.526;26.534;2022-11-20T04:55:47;8.63;;;3.45;;
10617;SDS011;5356;43.526;26.534;2022-11-20T04:58:13;3.53;;;3.25;;
10617;SDS011;5356;43.526;26.534;2022-11-20T05:00:39;8.68;;;4.05;;
10617;SDS011;5356;43.526;26.534;2022-11-20T05:03:05;5.28;;;3.45;;
10617;SDS011;5356;43.526;26.534;2022-11-20T05:05:30;4.18;;;3.50;;
10617;SDS011;5356;43.526;26.534;2022-11-20T05:07:56;6.40;;;3.35;;
10617;SDS011;5356;43.526;26.534;2022-11-20T05:10:23;4.97;;;3.60;;
10617;SDS011;5356;43.526;26.534;2022-11-20T05:12:49;7.93;;;4.22;;
10617;SDS011;5356;43.526;26.534;2022-11-20T05:15:14;3.58;;;3.28;;
10617;SDS011;5356;43.526;26.534;2022-11-20T05:17:40;5.05;;;3.53;;
10617;SDS011;5356;43.526;26.534;2022-11-20T05:20:05;6.70;;;4.05;;
10617;SDS011;5356;43.526;26.534;2022-11-20T05:22:31;4.10;;;3.40;;
10617;SDS011;5356;43.526;26.534;2022-11-20T05:24:57;4.68;;;3.53;;
10617;SDS011;5356;43.526;26.534;2022-11-20T05:27:22;4.78;;;3.30;;
10617;SDS011;5356;43.526;26.534;2022-11-20T05:29:48;7.93;;;3.60;;
10617;SDS011;5356;43.526;26.534;2022-11-20T05:32:13;5.60;;;3.60;;
10617;SDS011;5356;43.526;26.534;2022-11-20T05:34:38;4.55;;;3.40;;
10617;SDS011;5356;43.526;26.534;2022-11-20T05:37:04;8.13;;;3.70;;
10617;SDS011;5356;43.526;26.534;2022-11-20T05:39:29;4.45;;;3.65;;
10617;SDS011;5356;43.526;26.534;2022-11-20T05:41:55;4.90;;;2.88;;
10617;SDS011;5356;43.526;26.534;2022-11-20T05:44:39;5.35;;;3.13;;
10617;SDS011;5356;43.526;26.534;2022-11-20T05:47:05;7.85;;;3.97;;
10617;SDS011;5356;43.526;26.534;2022-11-20T05:49:31;6.75;;;3.40;;
10617;SDS011;5356;43.526;26.534;2022-11-20T05:51:57;4.53;;;3.10;;
10617;SDS011;5356;43.526;26.534;2022-11-20T05:54:22;4.90;;;3.45;;
10617;SDS011;5356;43.526;26.534;2022-11-20T05:56:48;3.83;;;3.20;;
10617;SDS011;5356;43.526;26.534;2022-11-20T05:59:13;3.75;;;3.20;;
10617;SDS011;5356;43.526;26.534;2022-11-20T06:01:39;5.55;;;4.20;;
10617;SDS011;5356;43.526;26.534;2022-11-20T06:04:04;7.22;;;3.45;;
10617;SDS011;5356;43.526;26.534;2022-11-20T06:06:29;4.75;;;3.80;;
10617;SDS011;5356;43.526;26.534;2022-11-20T06:08:55;4.07;;;3.67;;
10617;SDS011;5356;43.526;26.534;2022-11-20T06:11:20;6.47;;;4.05;;
10617;SDS011;5356;43.526;26.534;2022-11-20T06:13:46;5.97;;;3.38;;
10617;SDS011;5356;43.526;26.534;2022-11-20T06:16:13;5.40;;;4.82;;
10617;SDS011;5356;43.526;26.534;2022-11-20T06:18:41;7.15;;;3.88;;
10617;SDS011;5356;43.526;26.534;2022-11-20T06:21:07;10.38;;;5.70;;
10617;SDS011;5356;43.526;26.534;2022-11-20T06:23:35;8.63;;;5.10;;
10617;SDS011;5356;43.526;26.534;2022-11-20T06:26:02;12.60;;;4.70;;
10617;SDS011;5356;43.526;26.534;2022-11-20T06:28:28;7.32;;;4.03;;
10617;SDS011;5356;43.526;26.534;2022-11-20T06:30:54;3.65;;;3.35;;
10617;SDS011;5356;43.526;26.534;2022-11-20T06:33:19;4.20;;;3.58;;
10617;SDS011;5356;43.526;26.534;2022-11-20T06:35:45;4.35;;;3.55;;
10617;SDS011;5356;43.526;26.534;2022-11-20T06:38:10;7.93;;;3.58;;
10617;SDS011;5356;43.526;26.534;2022-11-20T06:40:35;5.85;;;3.80;;
10617;SDS011;5356;43.526;26.534;2022-11-20T06:43:01;6.78;;;4.57;;
10617;SDS011;5356;43.526;26.534;2022-11-20T06:45:26;8.90;;;4.22;;
10617;SDS011;5356;43.526;26.534;2022-11-20T06:47:52;6.45;;;4.60;;
10617;SDS011;5356;43.526;26.534;2022-11-20T06:50:17;7.35;;;5.25;;
10617;SDS011;5356;43.526;26.534;2022-11-20T06:52:43;11.40;;;7.63;;
10617;SDS011;5356;43.526;26.534;2022-11-20T06:55:08;7.72;;;6.85;;
10617;SDS011;5356;43.526;26.534;2022-11-20T06:57:33;6.80;;;4.88;;
10617;SDS011;5356;43.526;26.534;2022-11-20T06:59:59;8.35;;;6.35;;
10617;SDS011;5356;43.526;26.534;2022-11-20T07:02:24;13.05;;;7.72;;
10617;SDS011;5356;43.526;26.534;2022-11-20T07:04:50;9.45;;;6.72;;
10617;SDS011;5356;43.526;26.534;2022-11-20T07:07:15;15.52;;;8.88;;
10617;SDS011;5356;43.526;26.534;2022-11-20T07:09:41;13.05;;;9.93;;
10617;SDS011;5356;43.526;26.534;2022-11-20T07:12:06;12.93;;;8.48;;
10617;SDS011;5356;43.526;26.534;2022-11-20T07:14:31;11.88;;;9.18;;
10617;SDS011;5356;43.526;26.534;2022-11-20T07:16:57;16.83;;;12.85;;
10617;SDS011;5356;43.526;26.534;2022-11-20T07:19:22;15.77;;;10.68;;
10617;SDS011;5356;43.526;26.534;2022-11-20T07:21:48;14.98;;;8.80;;
10617;SDS011;5356;43.526;26.534;2022-11-20T07:24:13;14.68;;;10.10;;
10617;SDS011;5356;43.526;26.534;2022-11-20T07:26:38;9.18;;;5.78;;
10617;SDS011;5356;43.526;26.534;2022-11-20T07:29:04;8.32;;;6.10;;
10617;SDS011;5356;43.526;26.534;2022-11-20T07:31:29;14.85;;;7.65;;
10617;SDS011;5356;43.526;26.534;2022-11-20T07:33:55;14.25;;;6.43;;
10617;SDS011;5356;43.526;26.534;2022-11-20T07:36:20;11.35;;;5.60;;
10617;SDS011;5356;43.526;26.534;2022-11-20T07:38:46;18.65;;;9.20;;
10617;SDS011;5356;43.526;26.534;2022-11-20T07:41:11;11.75;;;8.07;;
10617;SDS011;5356;43.526;26.534;2022-11-20T07:43:36;27.13;;;11.93;;
10617;SDS011;5356;43.526;26.534;2022-11-20T07:46:02;16.17;;;9.20;;
10617;SDS011;5356;43.526;26.534;2022-11-20T07:48:28;9.43;;;5.82;;
10617;SDS011;5356;43.526;26.534;2022-11-20T07:50:55;7.13;;;5.57;;
10617;SDS011;5356;43.526;26.534;2022-11-20T07:53:21;9.15;;;6.70;;
10617;SDS011;5356;43.526;26.534;2022-11-20T07:55:47;11.73;;;7.75;;
10617;SDS011;5356;43.526;26.534;2022-11-20T07:58:13;13.10;;;8.48;;
10617;SDS011;5356;43.526;26.534;2022-11-20T08:00:39;13.52;;;9.68;;
10617;SDS011;5356;43.526;26.534;2022-11-20T08:03:05;13.65;;;9.40;;
10617;SDS011;5356;43.526;26.534;2022-11-20T08:05:31;13.38;;;9.45;;
10617;SDS011;5356;43.526;26.534;2022-11-20T08:07:56;14.25;;;9.70;;
10617;SDS011;5356;43.526;26.534;2022-11-20T08:10:22;16.25;;;10.55;;
10617;SDS011;5356;43.526;26.534;2022-11-20T08:12:48;17.75;;;9.85;;
10617;SDS011;5356;43.526;26.534;2022-11-20T08:15:34;21.98;;;10.82;;
10617;SDS011;5356;43.526;26.534;2022-11-20T08:18:01;16.63;;;9.52;;
10617;SDS011;5356;43.526;26.534;2022-11-20T08:20:30;17.23;;;10.10;;
10617;SDS011;5356;43.526;26.534;2022-11-20T08:23:03;16.35;;;9.35;;
10617;SDS011;5356;43.526;26.534;2022-11-20T08:25:31;14.60;;;9.43;;
10617;SDS011;5356;43.526;26.534;2022-11-20T08:28:01;15.38;;;9.82;;
10617;SDS011;5356;43.526;26.534;2022-11-20T08:30:27;16.38;;;9.45;;
10617;SDS011;5356;43.526;26.534;2022-11-20T08:32:54;23.75;;;11.60;;
10617;SDS011;5356;43.526;26.534;2022-11-20T08:35:20;19.15;;;9.60;;
10617;SDS011;5356;43.526;26.534;2022-11-20T08:37:47;21.05;;;11.85;;
10617;SDS011;5356;43.526;26.534;2022-11-20T08:40:13;23.67;;;12.88;;
10617;SDS011;5356;43.526;26.534;2022-11-20T08:42:48;21.27;;;10.60;;
10617;SDS011;5356;43.526;26.534;2022-11-20T08:45:15;14.38;;;9.63;;
10617;SDS011;5356;43.526;26.534;2022-11-20T08:47:42;13.73;;;9.35;;
10617;SDS011;5356;43.526;26.534;2022-11-20T08:50:12;13.30;;;8.30;;
10617;SDS011;5356;43.526;26.534;2022-11-20T08:52:39;18.38;;;9.98;;
10617;SDS011;5356;43.526;26.534;2022-11-20T08:55:04;15.30;;;9.63;;
10617;SDS011;5356;43.526;26.534;2022-11-20T08:57:31;14.77;;;8.32;;
10617;SDS011;5356;43.526;26.534;2022-11-20T08:59:58;16.48;;;9.27;;
10617;SDS011;5356;43.526;26.534;2022-11-20T09:02:24;16.45;;;9.48;;
10617;SDS011;5356;43.526;26.534;2022-11-20T09:04:49;17.42;;;9.38;;
10617;SDS011;5356;43.526;26.534;2022-11-20T09:07:15;15.52;;;9.38;;
10617;SDS011;5356;43.526;26.534;2022-11-20T09:09:40;17.92;;;9.90;;
10617;SDS011;5356;43.526;26.534;2022-11-20T09:12:06;16.25;;;9.60;;
10617;SDS011;5356;43.526;26.534;2022-11-20T09:14:31;17.98;;;9.02;;
10617;SDS011;5356;43.526;26.534;2022-11-20T10:12:00;19.27;;;11.35;;
10617;SDS011;5356;43.526;26.534;2022-11-20T10:14:38;16.30;;;10.00;;
10617;SDS011;5356;43.526;26.534;2022-11-20T10:25:38;11.60;;;7.72;;
10617;SDS011;5356;43.526;26.534;2022-11-20T10:31:07;13.30;;;7.80;;
10617;SDS011;5356;43.526;26.534;2022-11-20T10:33:36;12.13;;;7.60;;
10617;SDS011;5356;43.526;26.534;2022-11-20T10:36:23;13.18;;;8.43;;
10617;SDS011;5356;43.526;26.534;2022-11-20T10:38:55;13.80;;;8.35;;
10617;SDS011;5356;43.526;26.534;2022-11-20T10:41:30;12.95;;;7.55;;
10617;SDS011;5356;43.526;26.534;2022-11-20T10:47:01;13.85;;;7.28;;
10617;SDS011;5356;43.526;26.534;2022-11-20T10:49:28;10.40;;;6.72;;
10617;SDS011;5356;43.526;26.534;2022-11-20T11:02:33;13.55;;;8.10;;
10617;SDS011;5356;43.526;26.534;2022-11-20T11:07:45;15.23;;;8.55;;
10617;SDS011;5356;43.526;26.534;2022-11-20T11:10:15;14.38;;;8.00;;
10617;SDS011;5356;43.526;26.534;2022-11-20T11:12:43;11.70;;;8.23;;
10617;SDS011;5356;43.526;26.534;2022-11-20T11:18:10;12.02;;;7.55;;
10617;SDS011;5356;43.526;26.534;2022-11-20T11:20:36;12.43;;;7.35;;
10617;SDS011;5356;43.526;26.534;2022-11-20T11:23:02;11.20;;;5.95;;
10617;SDS011;5356;43.526;26.534;2022-11-20T11:30:41;11.90;;;8.05;;
10617;SDS011;5356;43.526;26.534;2022-11-20T11:33:17;13.10;;;8.10;;
10617;SDS011;5356;43.526;26.534;2022-11-20T11:35:49;10.38;;;7.32;;
10617;SDS011;5356;43.526;26.534;2022-11-20T11:38:21;10.60;;;6.72;;
10617;SDS011;5356;43.526;26.534;2022-11-20T11:41:19;9.40;;;6.97;;
10617;SDS011;5356;43.526;26.534;2022-11-20T11:43:52;12.45;;;7.68;;
10617;SDS011;5356;43.526;26.534;2022-11-20T11:46:43;28.88;;;17.88;;
10617;SDS011;5356;43.526;26.534;2022-11-20T11:49:21;13.55;;;8.60;;
10617;SDS011;5356;43.526;26.534;2022-11-20T11:54:34;23.90;;;20.10;;
10617;SDS011;5356;43.526;26.534;2022-11-20T12:10:22;14.48;;;8.63;;
10617;SDS011;5356;43.526;26.534;2022-11-20T12:13:04;16.83;;;12.98;;
10617;SDS011;5356;43.526;26.534;2022-11-20T12:16:01;14.05;;;9.10;;
10617;SDS011;5356;43.526;26.534;2022-11-20T12:18:28;16.30;;;10.65;;
10617;SDS011;5356;43.526;26.534;2022-11-20T12:21:07;18.27;;;9.60;;
10617;SDS011;5356;43.526;26.534;2022-11-20T12:34:56;18.65;;;10.80;;
10617;SDS011;5356;43.526;26.534;2022-11-20T12:40:14;12.10;;;7.88;;
10617;SDS011;5356;43.526;26.534;2022-11-20T12:45:46;20.98;;;10.82;;
10617;SDS011;5356;43.526;26.534;2022-11-20T12:48:36;14.75;;;8.40;;
10617;SDS011;5356;43.526;26.534;2022-11-20T13:05:35;13.10;;;8.60;;
10617;SDS011;5356;43.526;26.534;2022-11-20T13:08:18;18.08;;;10.48;;
10617;SDS011;5356;43.526;26.534;2022-11-20T13:13:22;17.95;;;11.40;;
10617;SDS011;5356;43.526;26.534;2022-11-20T13:15:58;16.58;;;10.75;;
10617;SDS011;5356;43.526;26.534;2022-11-20T13:18:33;17.77;;;10.38;;
10617;SDS011;5356;43.526;26.534;2022-11-20T13:21:13;19.08;;;12.07;;
10617;SDS011;5356;43.526;26.534;2022-11-20T13:23:43;16.17;;;9.73;;
10617;SDS011;5356;43.526;26.534;2022-11-20T13:26:16;17.63;;;9.95;;
10617;SDS011;5356;43.526;26.534;2022-11-20T13:28:47;15.65;;;9.77;;
10617;SDS011;5356;43.526;26.534;2022-11-20T13:31:28;21.10;;;11.15;;
10617;SDS011;5356;43.526;26.534;2022-11-20T13:34:00;19.95;;;10.80;;
10617;SDS011;5356;43.526;26.534;2022-11-20T13:36:29;15.93;;;9.88;;
10617;SDS011;5356;43.526;26.534;2022-11-20T13:38:56;21.83;;;11.05;;
10617;SDS011;5356;43.526;26.534;2022-11-20T13:41:23;32.83;;;13.57;;
10617;SDS011;5356;43.526;26.534;2022-11-20T13:44:05;20.33;;;10.13;;
10617;SDS011;5356;43.526;26.534;2022-11-20T13:46:38;16.48;;;10.07;;
10617;SDS011;5356;43.526;26.534;2022-11-20T13:51:42;19.55;;;9.95;;
10617;SDS011;5356;43.526;26.534;2022-11-20T14:00:30;15.00;;;10.18;;
10617;SDS011;5356;43.526;26.534;2022-11-20T14:02:44;17.48;;;11.15;;
10617;SDS011;5356;43.526;26.534;2022-11-20T14:05:46;16.63;;;11.25;;
10617;SDS011;5356;43.526;26.534;2022-11-20T14:08:26;17.80;;;10.52;;
10617;SDS011;5356;43.526;26.534;2022-11-20T14:13:31;21.42;;;12.25;;
10617;SDS011;5356;43.526;26.534;2022-11-20T14:15:56;20.52;;;11.15;;
10617;SDS011;5356;43.526;26.534;2022-11-20T14:18:25;18.05;;;11.13;;
10617;SDS011;5356;43.526;26.534;2022-11-20T14:20:51;19.73;;;11.55;;
10617;SDS011;5356;43.526;26.534;2022-11-20T14:23:27;21.25;;;12.20;;
10617;SDS011;5356;43.526;26.534;2022-11-20T14:25:54;18.10;;;11.27;;
10617;SDS011;5356;43.526;26.534;2022-11-20T14:28:25;19.55;;;11.73;;
10617;SDS011;5356;43.526;26.534;2022-11-20T14:30:52;19.48;;;12.82;;
10617;SDS011;5356;43.526;26.534;2022-11-20T14:33:18;22.45;;;13.40;;
10617;SDS011;5356;43.526;26.534;2022-11-20T14:35:48;20.40;;;11.98;;
10617;SDS011;5356;43.526;26.534;2022-11-20T14:38:26;21.10;;;14.38;;
10617;SDS011;5356;43.526;26.534;2022-11-20T14:40:53;21.95;;;14.07;;
10617;SDS011;5356;43.526;26.534;2022-11-20T14:43:21;24.00;;;14.82;;
10617;SDS011;5356;43.526;26.534;2022-11-20T14:45:48;23.05;;;13.77;;
10617;SDS011;5356;43.526;26.534;2022-11-20T14:48:28;21.25;;;13.13;;
10617;SDS011;5356;43.526;26.534;2022-11-20T14:51:01;26.48;;;13.68;;
10617;SDS011;5356;43.526;26.534;2022-11-20T14:53:27;30.05;;;16.95;;
10617;SDS011;5356;43.526;26.534;2022-11-20T14:56:00;34.38;;;20.20;;
10617;SDS011;5356;43.526;26.534;2022-11-20T15:03:33;29.45;;;17.45;;
10617;SDS011;5356;43.526;26.534;2022-11-20T15:06:07;32.10;;;19.67;;
10617;SDS011;5356;43.526;26.534;2022-11-20T15:08:35;38.28;;;22.95;;
10617;SDS011;5356;43.526;26.534;2022-11-20T15:11:02;44.75;;;24.88;;
10617;SDS011;5356;43.526;26.534;2022-11-20T15:13:32;40.33;;;26.42;;
10617;SDS011;5356;43.526;26.534;2022-11-20T15:16:00;31.95;;;20.25;;
10617;SDS011;5356;43.526;26.534;2022-11-20T15:18:31;29.90;;;17.98;;
10617;SDS011;5356;43.526;26.534;2022-11-20T15:23:28;32.70;;;19.77;;
10617;SDS011;5356;43.526;26.534;2022-11-20T15:25:54;31.42;;;17.08;;
10617;SDS011;5356;43.526;26.534;2022-11-20T15:28:30;21.63;;;14.45;;
10617;SDS011;5356;43.526;26.534;2022-11-20T15:30:58;25.33;;;15.55;;
10617;SDS011;5356;43.526;26.534;2022-11-20T15:33:24;42.67;;;22.83;;
10617;SDS011;5356;43.526;26.534;2022-11-20T15:35:49;30.15;;;19.35;;
10617;SDS011;5356;43.526;26.534;2022-11-20T15:38:15;23.33;;;15.80;;
10617;SDS011;5356;43.526;26.534;2022-11-20T15:40:40;22.48;;;13.52;;
10617;SDS011;5356;43.526;26.534;2022-11-20T15:43:07;23.35;;;12.93;;
10617;SDS011;5356;43.526;26.534;2022-11-20T15:45:34;26.13;;;14.10;;
10617;SDS011;5356;43.526;26.534;2022-11-20T15:48:02;20.92;;;12.35;;
10617;SDS011;5356;43.526;26.534;2022-11-20T15:50:36;28.40;;;17.35;;
10617;SDS011;5356;43.526;26.534;2022-11-20T15:53:04;23.35;;;14.05;;
10617;SDS011;5356;43.526;26.534;2022-11-20T15:55:30;19.20;;;11.00;;
10617;SDS011;5356;43.526;26.534;2022-11-20T15:57:55;22.45;;;13.07;;
10617;SDS011;5356;43.526;26.534;2022-11-20T16:00:21;31.17;;;16.88;;
10617;SDS011;5356;43.526;26.534;2022-11-20T16:02:46;31.25;;;21.70;;
10617;SDS011;5356;43.526;26.534;2022-11-20T16:05:12;36.78;;;22.33;;
10617;SDS011;5356;43.526;26.534;2022-11-20T16:07:40;25.83;;;15.45;;
10617;SDS011;5356;43.526;26.534;2022-11-20T16:10:05;40.20;;;20.20;;
10617;SDS011;5356;43.526;26.534;2022-11-20T16:12:31;32.22;;;21.17;;
10617;SDS011;5356;43.526;26.534;2022-11-20T16:15:15;31.75;;;20.67;;
10617;SDS011;5356;43.526;26.534;2022-11-20T16:17:59;51.88;;;35.10;;
10617;SDS011;5356;43.526;26.534;2022-11-20T16:20:24;39.65;;;24.00;;
10617;SDS011;5356;43.526;26.534;2022-11-20T16:22:49;35.45;;;22.75;;
10617;SDS011;5356;43.526;26.534;2022-11-20T16:25:15;40.58;;;27.60;;
10617;SDS011;5356;43.526;26.534;2022-11-20T16:27:41;36.83;;;21.95;;
10617;SDS011;5356;43.526;26.534;2022-11-20T16:30:06;26.13;;;13.55;;
10617;SDS011;5356;43.526;26.534;2022-11-20T16:32:32;17.50;;;10.43;;
10617;SDS011;5356;43.526;26.534;2022-11-20T16:34:58;15.73;;;10.13;;
10617;SDS011;5356;43.526;26.534;2022-11-20T16:37:23;16.23;;;9.80;;
10617;SDS011;5356;43.526;26.534;2022-11-20T16:39:49;17.10;;;10.38;;
10617;SDS011;5356;43.526;26.534;2022-11-20T16:42:14;20.10;;;12.90;;
10617;SDS011;5356;43.526;26.534;2022-11-20T16:44:39;27.33;;;17.65;;
10617;SDS011;5356;43.526;26.534;2022-11-20T16:47:05;18.20;;;9.23;;
10617;SDS011;5356;43.526;26.534;2022-11-20T16:49:30;19.67;;;11.73;;
10617;SDS011;5356;43.526;26.534;2022-11-20T16:51:57;18.55;;;11.20;;
10617;SDS011;5356;43.526;26.534;2022-11-20T16:54:23;22.38;;;14.18;;
10617;SDS011;5356;43.526;26.534;2022-11-20T16:56:48;15.88;;;10.38;;
10617;SDS011;5356;43.526;26.534;2022-11-20T16:59:15;16.30;;;10.68;;
10617;SDS011;5356;43.526;26.534;2022-11-20T17:01:41;17.50;;;10.50;;
10617;SDS011;5356;43.526;26.534;2022-11-20T17:04:07;19.08;;;9.85;;
10617;SDS011;5356;43.526;26.534;2022-11-20T17:06:37;14.82;;;8.32;;
10617;SDS011;5356;43.526;26.534;2022-11-20T17:09:04;15.65;;;8.30;;
10617;SDS011;5356;43.526;26.534;2022-11-20T17:11:33;15.55;;;9.63;;
10617;SDS011;5356;43.526;26.534;2022-11-20T17:13:59;17.88;;;9.77;;
10617;SDS011;5356;43.526;26.534;2022-11-20T17:16:27;16.05;;;9.77;;
10617;SDS011;5356;43.526;26.534;2022-11-20T17:18:56;13.50;;;9.15;;
10617;SDS011;5356;43.526;26.534;2022-11-20T17:21:23;14.55;;;8.25;;
10617;SDS011;5356;43.526;26.534;2022-11-20T17:23:49;16.15;;;7.85;;
10617;SDS011;5356;43.526;26.534;2022-11-20T17:26:19;17.85;;;9.52;;
10617;SDS011;5356;43.526;26.534;2022-11-20T17:31:19;19.67;;;11.23;;